Faxon, Pennsylvania
Current Conditions -  °F | °C
As of 1:54 AM on Sunday 21 Dec 2014 (Local Time) from KIPT Reporting Station
Overcast Overcast  
Wind Chill: 25°   Ceiling: 3000
Heat Index: 31°   Visibility: 10mi
Dew Point: 20°   Wind: 6mph
Humidity: 64%   Direction: 260°W
Pressure: 30.27"   Gusts: NA
Location:  41.246°N, 77.0167°W
Report Text: KIPT 210654Z AUTO 26005KT 10SM OVC030 M01/M07 A3027 RMK AO2 SLP256 T10061067
Loading
Personal Weather Stations






























Interactive Weather Map New forecast layout! Learn more

10-Day Weather Forecast

Advertisements
Track Severe Weather on mobile